Time;durP1;ratioP1;P1;durP2;ratioP2;P2;SDS_P1;SDS_P2;PMS_P1;PMS_P2;Temp;Humidity;BMP_temperature;BMP_pressure;BME280_temperature;BME280_humidity;BME280_pressure;Samples;Min_cycle;Max_cycle;Signal;HPM_P1;HPM_P2
2023/09/18 00:01:14;;;;;;;5.72;3.40;;;;;;;24.34;54.77;99098.94;4872217;29;20061;-85
2023/09/18 00:03:40;;;;;;;4.18;2.92;;;;;;;24.33;54.45;99099.13;4859873;29;20144;-85
2023/09/18 00:06:08;;;;;;;5.32;3.20;;;;;;;24.33;54.42;99091.06;4874365;29;20064;-85
2023/09/18 00:08:35;;;;;;;3.83;3.05;;;;;;;24.31;54.67;99088.59;4860273;29;20060;-85
2023/09/18 00:11:04;;;;;;;7.10;3.38;;;;;;;24.32;54.88;99070.56;4859011;29;20746;-85
2023/09/18 00:13:31;;;;;;;4.22;3.10;;;;;;;24.31;54.50;99063.53;4858778;29;20069;-85
2023/09/18 00:15:59;;;;;;;4.43;3.00;;;;;;;24.30;54.81;99065.38;4870304;29;20053;-85
2023/09/18 00:18:26;;;;;;;5.50;3.40;;;;;;;24.29;54.82;99061.03;4892880;29;20097;-85
2023/09/18 00:20:53;;;;;;;5.20;3.30;;;;;;;24.29;54.78;99054.84;4878499;29;20057;-85
2023/09/18 00:23:19;;;;;;;5.90;3.10;;;;;;;24.27;54.91;99046.97;4878062;29;20063;-85
2023/09/18 00:25:46;;;;;;;4.93;3.10;;;;;;;24.27;54.86;99036.22;4878101;29;20132;-86
2023/09/18 00:28:13;;;;;;;6.35;3.35;;;;;;;24.26;55.16;99031.84;4879721;29;20120;-85
2023/09/18 00:30:46;;;;;;;5.93;3.45;;;;;;;24.24;55.47;99030.38;4881954;29;20136;-85
2023/09/18 00:33:12;;;;;;;4.50;3.33;;;;;;;24.24;54.85;99033.91;4880024;29;20063;-85
2023/09/18 00:35:39;;;;;;;4.55;3.50;;;;;;;24.23;55.06;99026.88;4880089;29;20068;-85
2023/09/18 00:38:07;;;;;;;5.95;3.53;;;;;;;24.23;55.61;99020.66;4895878;29;20060;-85
2023/09/18 00:40:34;;;;;;;4.65;3.60;;;;;;;24.22;55.24;99017.13;4881504;29;20515;-85
2023/09/18 00:43:00;;;;;;;4.43;3.65;;;;;;;24.22;55.46;99019.00;4881234;29;20132;-85
2023/09/18 00:45:27;;;;;;;4.50;3.30;;;;;;;24.20;55.52;99021.88;4881140;29;20128;-85
2023/09/18 00:47:54;;;;;;;3.97;3.47;;;;;;;24.19;55.52;99014.84;4881316;29;20057;-85
2023/09/18 00:50:21;;;;;;;6.22;3.35;;;;;;;24.16;55.45;99005.31;4881330;29;20591;-85
2023/09/18 00:52:49;;;;;;;7.45;3.88;;;;;;;24.16;55.55;99004.47;4880739;29;20508;-85
2023/09/18 00:55:16;;;;;;;6.82;3.53;;;;;;;24.13;55.77;98997.63;4881369;29;20056;-85
2023/09/18 00:57:44;;;;;;;3.60;3.30;;;;;;;24.14;55.38;98993.09;4895708;29;20468;-85
2023/09/18 01:00:16;;;;;;;8.68;3.65;;;;;;;24.12;55.73;98989.75;4879659;29;20441;-85
2023/09/18 01:02:44;;;;;;;4.43;3.55;;;;;;;24.12;55.90;98984.38;4880912;29;20052;-85
2023/09/18 01:05:11;;;;;;;7.78;4.00;;;;;;;24.12;55.87;98981.69;4895751;29;20084;-85
2023/09/18 01:07:38;;;;;;;12.05;4.20;;;;;;;24.12;55.71;98970.94;4881276;29;20112;-85
2023/09/18 01:10:05;;;;;;;7.07;4.25;;;;;;;24.12;55.81;98979.00;4879835;29;20141;-85
2023/09/18 01:12:44;;;;;;;5.30;3.80;;;;;;;24.06;56.20;98973.34;4880517;29;20056;-85
2023/09/18 01:15:26;;;;;;;5.68;3.85;;;;;;;24.06;55.99;98967.13;4880717;29;20716;-85
2023/09/18 01:17:53;;;;;;;4.97;3.70;;;;;;;24.08;55.49;98965.91;4880934;29;20057;-85
2023/09/18 01:20:20;;;;;;;6.03;4.03;;;;;;;24.07;55.82;98958.88;4880873;29;20164;-85
2023/09/18 01:22:48;;;;;;;8.77;3.60;;;;;;;24.07;55.71;98955.38;4879289;29;20053;-85
2023/09/18 01:25:15;;;;;;;8.02;3.85;;;;;;;24.04;56.14;98953.88;4880654;29;20159;-85
2023/09/18 01:27:42;;;;;;;8.32;3.97;;;;;;;24.04;55.78;98956.56;4880601;29;20095;-85
2023/09/18 01:30:09;;;;;;;7.28;3.97;;;;;;;24.04;56.04;98950.38;4880694;29;20056;-85
2023/09/18 01:32:38;;;;;;;5.43;3.67;;;;;;;24.03;56.42;98952.22;4894525;29;20074;-85
2023/09/18 01:35:07;;;;;;;9.75;3.72;;;;;;;24.03;56.24;98952.22;4879308;29;20057;-85
2023/09/18 01:37:35;;;;;;;5.07;3.90;;;;;;;24.02;56.20;98939.81;4894825;29;20057;-86
2023/09/18 01:40:06;;;;;;;7.22;4.35;;;;;;;24.02;56.15;98941.66;4879870;29;20477;-85
2023/09/18 01:42:35;;;;;;;9.23;4.28;;;;;;;24.01;56.08;98942.72;4879896;29;20088;-85
2023/09/18 01:45:02;;;;;;;10.75;4.40;;;;;;;24.00;56.19;98925.72;4879975;29;20076;-85
2023/09/18 01:47:29;;;;;;;7.50;4.03;;;;;;;23.99;56.10;98924.09;4880561;29;20047;-86
2023/09/18 01:49:56;;;;;;;8.23;4.53;;;;;;;24.00;56.02;98914.97;4880341;29;20053;-85
2023/09/18 01:52:22;;;;;;;7.95;4.47;;;;;;;23.97;56.29;98912.72;4880272;29;20532;-86
2023/09/18 01:54:49;;;;;;;8.13;4.25;;;;;;;23.97;56.49;98911.88;4880286;29;20131;-85
2023/09/18 01:57:16;;;;;;;8.55;4.35;;;;;;;23.96;56.55;98911.06;4880296;29;20588;-85
2023/09/18 01:59:43;;;;;;;7.43;4.32;;;;;;;23.95;56.15;98912.06;4894457;29;20084;-85
2023/09/18 02:02:11;;;;;;;5.22;4.28;;;;;;;23.93;56.41;98908.75;4880037;29;20057;-85
2023/09/18 02:04:45;;;;;;;7.28;4.32;;;;;;;23.94;56.15;98905.03;4879322;29;20059;-85
2023/09/18 02:07:31;;;;;;;6.63;4.05;;;;;;;23.94;56.74;98900.50;4880328;29;20060;-85
2023/09/18 02:09:58;;;;;;;7.80;4.40;;;;;;;23.95;56.28;98893.25;4879025;29;20750;-85
2023/09/18 02:12:24;;;;;;;8.50;4.15;;;;;;;23.95;56.76;98894.09;4879568;29;20136;-85
2023/09/18 02:14:51;;;;;;;5.90;4.47;;;;;;;23.98;56.68;98894.72;4878501;29;20064;-85
2023/09/18 02:17:20;;;;;;;5.20;3.60;;;;;;;23.99;56.46;98897.19;4878265;29;20149;-85
2023/09/18 02:19:49;;;;;;;4.82;3.80;;;;;;;24.00;56.69;98887.28;4879896;29;20143;-85
2023/09/18 02:22:15;;;;;;;3.95;3.55;;;;;;;24.01;56.55;98883.56;4879432;29;20088;-86
2023/09/18 02:24:42;;;;;;;5.15;3.75;;;;;;;24.01;56.58;98876.34;4893384;29;20053;-85
2023/09/18 02:27:08;;;;;;;5.63;3.65;;;;;;;24.00;56.65;98874.66;4879472;29;20057;-85
2023/09/18 02:29:35;;;;;;;7.40;4.60;;;;;;;24.00;56.17;98866.59;4879484;29;20144;-85
2023/09/18 02:32:02;;;;;;;9.65;4.13;;;;;;;23.99;56.56;98862.25;4879336;29;20065;-85
2023/09/18 02:34:29;;;;;;;5.03;3.72;;;;;;;23.98;56.12;98860.59;4878958;29;20084;-85
2023/09/18 02:36:55;;;;;;;9.50;4.82;;;;;;;23.98;56.51;98857.91;4893495;29;20053;-86
2023/09/18 02:39:22;;;;;;;7.25;4.22;;;;;;;23.94;56.60;98857.50;4879421;29;20575;-85
2023/09/18 02:41:48;;;;;;;7.43;4.25;;;;;;;23.93;56.09;98855.00;4879247;29;20053;-85
2023/09/18 02:44:16;;;;;;;7.05;4.32;;;;;;;23.91;56.46;98854.34;4879372;29;20059;-85
2023/09/18 02:46:43;;;;;;;7.70;4.28;;;;;;;23.90;56.39;98847.31;4878927;29;20092;-85
2023/09/18 02:49:10;;;;;;;6.65;4.60;;;;;;;23.88;56.59;98836.75;4878403;29;20084;-85
2023/09/18 02:51:36;;;;;;;7.38;4.18;;;;;;;23.86;56.69;98830.78;4878093;29;20120;-85
2023/09/18 02:54:03;;;;;;;8.07;5.07;;;;;;;23.85;56.66;98825.59;4879119;29;20113;-86
2023/09/18 02:56:30;;;;;;;6.82;4.45;;;;;;;23.82;56.83;98816.06;4893328;29;20057;-85
2023/09/18 02:58:56;;;;;;;6.70;4.47;;;;;;;23.81;56.63;98820.59;4878998;29;20465;-85
2023/09/18 03:01:23;;;;;;;7.13;4.13;;;;;;;23.80;56.82;98808.19;4879081;29;20757;-85
2023/09/18 03:03:49;;;;;;;6.43;4.03;;;;;;;23.79;56.46;98801.19;4878859;29;20053;-85
2023/09/18 03:06:16;;;;;;;7.80;4.18;;;;;;;23.78;56.50;98804.88;4879129;29;20053;-85
2023/09/18 03:08:43;;;;;;;8.38;3.92;;;;;;;23.78;56.96;98796.81;4879348;29;20082;-86
2023/09/18 03:11:14;;;;;;;8.82;4.30;;;;;;;23.74;56.86;98795.53;4879006;29;20064;-86
2023/09/18 03:13:47;;;;;;;10.40;4.45;;;;;;;23.73;57.30;98790.38;4879002;29;20060;-85
2023/09/18 03:16:13;;;;;;;;;;;;;;;23.73;56.19;98782.34;4893560;29;20097;-85
2023/09/18 03:18:40;;;;;;;5.28;3.92;;;;;;;23.80;56.64;98783.19;4878826;29;19923;-85
2023/09/18 03:21:07;;;;;;;7.25;4.55;;;;;;;23.78;56.64;98777.19;4879208;29;20468;-86
2023/09/18 03:23:33;;;;;;;5.53;4.10;;;;;;;23.76;56.77;98761.25;4877414;29;20055;-84
2023/09/18 03:26:00;;;;;;;10.07;4.07;;;;;;;23.75;56.52;98748.03;4878982;29;20045;-85
2023/09/18 03:28:26;;;;;;;5.75;3.92;;;;;;;23.74;56.80;98738.31;4893355;29;20114;-85
2023/09/18 03:30:53;;;;;;;8.15;4.30;;;;;;;23.73;56.74;98747.41;4878701;29;20057;-85
2023/09/18 03:33:19;;;;;;;8.77;4.03;;;;;;;23.73;56.46;98729.41;4878572;29;20184;-85
2023/09/18 03:35:51;;;;;;;8.95;4.97;;;;;;;23.72;56.77;98722.38;4877429;29;20049;-85
2023/09/18 03:38:18;;;;;;;6.68;4.20;;;;;;;23.72;56.60;98722.38;4878721;29;20112;-85
2023/09/18 03:40:45;;;;;;;8.77;4.15;;;;;;;23.72;56.70;98714.31;4878354;29;20248;-85
2023/09/18 03:43:14;;;;;;;8.20;3.92;;;;;;;23.71;56.73;98707.31;4878147;29;20085;-85
2023/09/18 03:45:41;;;;;;;8.77;4.40;;;;;;;23.70;56.30;98700.28;4878475;29;20061;-84
2023/09/18 03:48:09;;;;;;;7.15;4.05;;;;;;;23.70;56.49;98686.84;4878795;29;20117;-85
2023/09/18 03:50:35;;;;;;;6.85;4.32;;;;;;;23.70;56.36;98678.78;4878397;29;20452;-85
2023/09/18 03:53:02;;;;;;;8.32;4.15;;;;;;;23.70;56.89;98673.41;4876861;29;20061;-85
2023/09/18 03:55:29;;;;;;;7.07;4.05;;;;;;;23.69;56.46;98667.19;5027938;23;20055;-81
2023/09/18 03:57:57;;;;;;;6.35;3.97;;;;;;;23.68;56.83;98665.53;4952921;29;20399;-81
2023/09/18 04:00:24;;;;;;;9.95;4.60;;;;;;;23.67;56.64;98649.63;4952816;28;20062;-82
2023/09/18 04:02:50;;;;;;;8.98;4.22;;;;;;;23.65;56.65;98654.34;4953373;28;20047;-81
2023/09/18 04:05:18;;;;;;;6.57;3.70;;;;;;;23.65;56.47;98646.28;4956567;29;20519;-82
2023/09/18 04:07:46;;;;;;;4.95;3.67;;;;;;;23.64;56.75;98633.91;4956604;29;20102;-82
2023/09/18 04:10:22;;;;;;;5.95;3.53;;;;;;;23.62;57.02;98633.28;4956379;29;20047;-81
2023/09/18 04:12:52;;;;;;;9.00;3.80;;;;;;;23.63;56.70;98629.56;4955556;29;20078;-81
2023/09/18 04:15:19;;;;;;;6.53;3.92;;;;;;;23.64;56.84;98636.59;4956465;29;20582;-81
2023/09/18 04:17:47;;;;;;;7.45;4.40;;;;;;;23.63;56.78;98645.69;4956275;29;20087;-80
2023/09/18 04:20:14;;;;;;;7.85;3.90;;;;;;;23.62;56.97;98647.53;4955126;29;20059;-81
2023/09/18 04:22:50;;;;;;;5.63;3.72;;;;;;;23.63;56.60;98635.75;4955593;29;20055;-81
2023/09/18 04:25:18;;;;;;;4.07;3.33;;;;;;;23.65;56.68;98635.53;4954886;29;20444;-81
2023/09/18 04:27:46;;;;;;;7.93;3.65;;;;;;;23.67;56.69;98634.31;4956066;28;20133;-81
2023/09/18 04:30:13;;;;;;;6.88;3.75;;;;;;;23.69;56.50;98636.81;4956156;29;20154;-82
2023/09/18 04:32:40;;;;;;;7.15;4.05;;;;;;;23.72;56.87;98638.25;4955513;29;20430;-82
2023/09/18 04:35:08;;;;;;;7.18;4.20;;;;;;;23.73;56.84;98627.31;4955642;29;20061;-82
2023/09/18 04:37:37;;;;;;;8.10;3.85;;;;;;;23.77;56.70;98631.25;4955791;29;20051;-81
2023/09/18 04:40:09;;;;;;;6.85;3.88;;;;;;;23.80;56.60;98621.97;4955739;29;20436;-82
2023/09/18 04:42:39;;;;;;;7.45;3.78;;;;;;;23.82;56.26;98623.41;4955457;28;20059;-82
2023/09/18 04:45:06;;;;;;;7.75;3.78;;;;;;;23.85;56.51;98618.69;4955721;29;20600;-81
2023/09/18 04:47:32;;;;;;;8.82;4.20;;;;;;;23.87;56.34;98608.53;4955755;29;20472;-81
2023/09/18 04:49:59;;;;;;;4.80;3.30;;;;;;;23.88;56.04;98604.84;4955679;29;20058;-81
2023/09/18 04:52:26;;;;;;;9.73;3.67;;;;;;;23.90;56.05;98594.72;4955264;29;20047;-81
2023/09/18 04:54:54;;;;;;;6.68;3.72;;;;;;;23.90;56.05;98592.84;4954381;29;20047;-83
2023/09/18 04:57:22;;;;;;;11.50;3.28;;;;;;;23.94;55.99;98585.22;4955621;29;20151;-81
2023/09/18 04:59:49;;;;;;;5.82;3.40;;;;;;;23.96;55.70;98575.09;4955214;29;20051;-82
2023/09/18 05:02:36;;;;;;;7.38;3.60;;;;;;;23.99;55.44;98574.66;4955117;28;20492;-82
2023/09/18 05:05:03;;;;;;;5.60;3.28;;;;;;;24.01;55.86;98553.81;4955375;28;20074;-81
2023/09/18 05:07:31;;;;;;;7.38;3.50;;;;;;;24.03;55.43;98562.47;4955346;29;20055;-80
2023/09/18 05:09:57;;;;;;;6.22;3.58;;;;;;;24.04;55.61;98577.56;4954548;29;20075;-83
2023/09/18 05:12:24;;;;;;;8.35;4.00;;;;;;;24.06;55.79;98588.13;4955355;29;20110;-83
2023/09/18 05:14:53;;;;;;;6.20;3.50;;;;;;;24.09;55.65;98598.47;4954497;28;20043;-80
2023/09/18 05:17:19;;;;;;;6.03;3.33;;;;;;;24.10;55.38;98597.44;4954908;29;20169;-82
2023/09/18 05:19:46;;;;;;;8.85;3.88;;;;;;;24.13;55.89;98612.34;4955391;29;20055;-82
2023/09/18 05:22:12;;;;;;;7.10;3.60;;;;;;;24.14;56.15;98603.28;4955166;29;20055;-82
2023/09/18 05:24:39;;;;;;;11.20;3.70;;;;;;;24.14;56.35;98593.31;4955168;29;20101;-81
2023/09/18 05:27:07;;;;;;;6.63;3.58;;;;;;;24.13;56.17;98577.41;4954918;28;20484;-80
2023/09/18 05:29:37;;;;;;;8.23;3.47;;;;;;;24.10;56.56;98572.41;4954993;28;20055;-82
2023/09/18 05:32:04;;;;;;;6.70;3.40;;;;;;;24.06;56.34;98597.00;4954338;29;20288;-82
2023/09/18 05:34:31;;;;;;;8.85;3.55;;;;;;;24.02;56.80;98601.16;4954595;29;20389;-82
2023/09/18 05:36:58;;;;;;;5.25;3.20;;;;;;;23.99;56.88;98592.66;4955109;29;20055;-80
2023/09/18 05:39:25;;;;;;;4.00;3.05;;;;;;;23.94;56.93;98609.38;4954928;29;20121;-79
2023/09/18 05:41:51;;;;;;;11.02;3.92;;;;;;;23.91;57.11;98612.47;4953186;29;20055;-80
2023/09/18 05:44:18;;;;;;;6.18;3.72;;;;;;;23.86;57.80;98610.41;4954665;29;20051;-80
2023/09/18 05:46:44;;;;;;;8.05;3.60;;;;;;;23.81;57.47;98600.25;4954718;29;20071;-80
2023/09/18 05:49:12;;;;;;;6.22;3.58;;;;;;;23.78;57.50;98594.47;4953541;29;20051;-80
2023/09/18 05:51:38;;;;;;;9.57;3.70;;;;;;;23.74;57.69;98588.66;4954069;29;20488;-83
2023/09/18 05:54:05;;;;;;;9.57;3.92;;;;;;;23.72;57.86;98595.28;4954491;29;20082;-81
2023/09/18 05:56:32;;;;;;;4.45;4.05;;;;;;;23.69;58.03;98588.44;4953180;29;20126;-80
2023/09/18 05:58:58;;;;;;;9.07;3.67;;;;;;;23.69;57.65;98596.50;4954441;29;20137;-83
2023/09/18 06:01:25;;;;;;;7.47;3.90;;;;;;;23.67;57.82;98609.31;4954286;29;20062;-80
2023/09/18 06:03:52;;;;;;;9.80;4.10;;;;;;;23.65;57.51;98608.69;4953928;29;20563;-80
2023/09/18 06:06:18;;;;;;;4.78;3.40;;;;;;;23.64;58.17;98617.78;4954484;29;20054;-79
2023/09/18 06:08:45;;;;;;;7.05;3.40;;;;;;;23.64;57.93;98612.41;4954214;29;20051;-80
2023/09/18 06:11:12;;;;;;;10.32;3.78;;;;;;;23.63;58.46;98618.81;4954054;29;20483;-80
2023/09/18 06:13:39;;;;;;;6.68;3.72;;;;;;;23.62;57.88;98614.47;4953712;29;20073;-79
2023/09/18 06:16:07;;;;;;;8.45;3.60;;;;;;;23.61;57.95;98610.94;4954204;29;20114;-82
2023/09/18 06:18:35;;;;;;;9.02;4.10;;;;;;;23.60;58.47;98616.53;4954048;29;20420;-80
2023/09/18 06:21:02;;;;;;;9.48;4.05;;;;;;;23.58;58.23;98627.47;4953898;29;20062;-79
2023/09/18 06:23:29;;;;;;;6.40;3.40;;;;;;;23.54;58.85;98634.25;4953512;29;20072;-80
2023/09/18 06:25:56;;;;;;;7.22;3.60;;;;;;;23.49;58.57;98612.56;4953191;28;20603;-79
2023/09/18 06:28:23;;;;;;;7.85;3.58;;;;;;;23.45;58.90;98619.34;4953711;29;20063;-82
2023/09/18 06:30:49;;;;;;;7.57;4.13;;;;;;;23.41;58.90;98621.63;4954036;28;20071;-79
2023/09/18 06:33:16;;;;;;;10.10;4.00;;;;;;;23.37;59.19;98623.03;4953599;29;20077;-79
2023/09/18 06:35:43;;;;;;;6.80;3.45;;;;;;;23.33;59.32;98624.44;4953731;29;20130;-79
2023/09/18 06:38:12;;;;;;;7.55;3.50;;;;;;;23.31;59.43;98627.31;4953501;29;20047;-80
2023/09/18 06:40:39;;;;;;;7.30;3.30;;;;;;;23.28;59.53;98628.53;4953994;29;20416;-83
2023/09/18 06:43:05;;;;;;;7.60;3.97;;;;;;;23.27;59.94;98626.06;4953314;28;20559;-80
2023/09/18 06:45:33;;;;;;;6.97;3.40;;;;;;;23.28;59.75;98631.22;4953400;29;20452;-80
2023/09/18 06:48:03;;;;;;;9.18;4.00;;;;;;;23.27;60.06;98631.44;4953710;29;20145;-80
2023/09/18 06:50:30;;;;;;;9.30;3.60;;;;;;;23.29;60.17;98624.03;4953765;29;20051;-82
2023/09/18 06:52:57;;;;;;;9.07;3.70;;;;;;;23.29;59.82;98624.03;4953238;29;20436;-79
2023/09/18 06:55:23;;;;;;;9.05;3.58;;;;;;;23.30;60.12;98626.47;4953380;29;20113;-81
2023/09/18 06:57:51;;;;;;;8.52;3.25;;;;;;;23.33;60.31;98629.81;4952400;29;20519;-82
2023/09/18 07:00:20;;;;;;;10.90;3.33;;;;;;;23.35;60.23;98633.13;4952283;29;20089;-80
2023/09/18 07:02:49;;;;;;;7.22;3.67;;;;;;;23.35;60.23;98630.44;4952041;29;20050;-80
2023/09/18 07:05:16;;;;;;;7.80;3.70;;;;;;;23.38;60.24;98627.38;4953422;29;20149;-80
2023/09/18 07:07:43;;;;;;;7.93;3.63;;;;;;;23.39;60.49;98624.50;4953403;29;20051;-81
2023/09/18 07:10:10;;;;;;;9.95;3.55;;;;;;;23.41;60.10;98617.06;4953332;29;20055;-80
2023/09/18 07:12:36;;;;;;;7.43;3.38;;;;;;;23.43;60.19;98615.03;4953223;29;20051;-81
2023/09/18 07:15:04;;;;;;;8.57;3.70;;;;;;;23.47;60.63;98626.19;4953355;29;20055;-82
2023/09/18 07:17:32;;;;;;;10.90;3.88;;;;;;;23.51;60.67;98626.63;4953170;28;20061;-84
2023/09/18 07:20:00;;;;;;;9.05;3.55;;;;;;;23.53;60.53;98638.81;4953144;29;20047;-79
2023/09/18 07:22:26;;;;;;;8.90;3.22;;;;;;;23.56;60.41;98641.09;4952765;29;20401;-80
2023/09/18 07:24:56;;;;;;;9.50;3.50;;;;;;;23.59;60.32;98639.03;4953239;29;20151;-81
2023/09/18 07:27:22;;;;;;;9.10;4.05;;;;;;;23.61;60.01;98628.91;4953254;29;20090;-79
2023/09/18 07:29:49;;;;;;;7.80;4.03;;;;;;;23.63;60.01;98627.69;4953251;29;20059;-80
2023/09/18 07:32:15;;;;;;;7.63;3.50;;;;;;;23.63;60.18;98635.75;4953036;29;20058;-82
2023/09/18 07:34:55;;;;;;;7.93;3.67;;;;;;;23.64;60.26;98629.38;4952932;29;20499;-80
2023/09/18 07:37:22;;;;;;;8.38;3.67;;;;;;;23.65;60.08;98630.19;4952531;29;20134;-80
2023/09/18 07:39:49;;;;;;;8.77;3.70;;;;;;;23.66;60.12;98637.22;4952842;29;20090;-82
2023/09/18 07:42:16;;;;;;;7.35;3.55;;;;;;;23.67;60.58;98642.38;4952992;28;20101;-80
2023/09/18 07:44:42;;;;;;;10.30;3.55;;;;;;;23.69;60.29;98661.81;4952680;29;20043;-80
2023/09/18 07:47:09;;;;;;;7.28;3.17;;;;;;;23.71;60.27;98664.31;4952860;29;20052;-82
2023/09/18 07:49:35;;;;;;;12.98;3.65;;;;;;;23.73;59.87;98670.28;4952763;29;20051;-80
2023/09/18 07:52:02;;;;;;;9.73;3.53;;;;;;;23.74;60.33;98665.75;4952889;29;20055;-80
2023/09/18 07:54:29;;;;;;;7.85;3.55;;;;;;;23.76;60.30;98658.31;4951569;29;20106;-80
2023/09/18 07:56:56;;;;;;;10.35;3.67;;;;;;;23.77;60.33;98651.94;4952575;28;20150;-80
2023/09/18 07:59:25;;;;;;;9.88;3.70;;;;;;;23.77;60.45;98662.69;4952665;29;20496;-79
2023/09/18 08:01:52;;;;;;;9.23;3.40;;;;;;;23.80;60.32;98667.63;4952778;29;20693;-81
2023/09/18 08:04:18;;;;;;;10.63;3.58;;;;;;;23.82;60.33;98649.47;4952400;29;20059;-81
2023/09/18 08:06:45;;;;;;;8.13;3.33;;;;;;;23.85;60.35;98654.41;4952836;29;20134;-80
2023/09/18 08:09:15;;;;;;;6.55;3.17;;;;;;;23.87;60.15;98648.84;4952627;28;20535;-81
2023/09/18 08:11:42;;;;;;;9.07;3.97;;;;;;;23.88;60.30;98654.03;4952640;29;20047;-79
2023/09/18 08:14:13;;;;;;;8.00;3.72;;;;;;;23.90;59.78;98661.88;4952453;29;20388;-80
2023/09/18 08:16:40;;;;;;;8.98;3.67;;;;;;;23.91;60.31;98661.69;4952488;29;20054;-79
2023/09/18 08:19:06;;;;;;;10.93;3.70;;;;;;;23.92;60.04;98657.16;4951510;29;20051;-79
2023/09/18 08:21:33;;;;;;;10.65;3.75;;;;;;;23.93;60.25;98664.19;4952645;28;20047;-82
2023/09/18 08:24:00;;;;;;;10.27;3.90;;;;;;;23.95;60.26;98667.47;4952436;29;20051;-82
2023/09/18 08:26:28;;;;;;;9.18;3.50;;;;;;;23.98;60.42;98668.94;4952485;29;20547;-81
2023/09/18 08:28:54;;;;;;;9.02;2.88;;;;;;;24.01;60.61;98647.88;4952527;28;20467;-79
2023/09/18 08:31:21;;;;;;;6.85;3.45;;;;;;;24.04;60.31;98647.44;4952425;29;20806;-79
2023/09/18 08:33:48;;;;;;;11.32;3.95;;;;;;;24.08;60.20;98643.31;4952051;29;20043;-81
2023/09/18 08:36:15;;;;;;;8.35;3.13;;;;;;;24.14;60.34;98651.66;4951317;29;20078;-80
2023/09/18 08:38:43;;;;;;;7.75;3.17;;;;;;;24.19;60.11;98660.75;4952255;29;20062;-83
2023/09/18 08:41:12;;;;;;;8.20;3.15;;;;;;;24.26;60.43;98670.69;4952442;29;20090;-82
2023/09/18 08:43:42;;;;;;;10.00;3.38;;;;;;;24.30;60.25;98675.44;4952162;29;20139;-79
2023/09/18 08:46:09;;;;;;;6.82;3.05;;;;;;;24.38;60.04;98684.38;4952280;29;20497;-79
2023/09/18 08:48:37;;;;;;;7.55;3.53;;;;;;;24.44;59.99;98707.75;4952536;28;20051;-79
2023/09/18 08:51:05;;;;;;;7.15;3.50;;;;;;;24.47;59.42;98710.03;4955136;29;20110;-80
2023/09/18 08:53:34;;;;;;;7.75;3.17;;;;;;;24.49;59.43;98710.69;4955564;29;20134;-79
2023/09/18 08:56:02;;;;;;;6.18;3.20;;;;;;;24.51;59.26;98692.44;4955659;29;20051;-80
2023/09/18 08:58:32;;;;;;;7.90;3.50;;;;;;;24.52;59.27;98679.84;4955599;29;20122;-80
2023/09/18 09:00:59;;;;;;;6.60;2.92;;;;;;;24.55;59.56;98701.78;4955663;29;20465;-80
2023/09/18 09:03:29;;;;;;;10.55;3.30;;;;;;;24.57;59.14;98720.41;4955430;29;20055;-80
2023/09/18 09:06:00;;;;;;;8.23;2.95;;;;;;;24.58;59.00;98700.53;4955465;29;20094;-81
2023/09/18 09:08:28;;;;;;;8.02;2.50;;;;;;;24.57;58.67;98688.97;4955607;29;20137;-81
2023/09/18 09:10:57;;;;;;;9.88;3.20;;;;;;;24.57;58.69;98694.34;4955799;29;20089;-80
2023/09/18 09:13:26;;;;;;;10.35;2.50;;;;;;;24.55;58.72;98691.00;4955369;29;20110;-83
2023/09/18 09:16:12;;;;;;;6.88;2.83;;;;;;;24.56;58.50;98705.31;4955783;28;20048;-79
2023/09/18 09:18:50;;;;;;;7.55;2.53;;;;;;;24.50;59.02;98706.94;4955406;29;20066;-79
2023/09/18 09:21:18;;;;;;;8.63;2.47;;;;;;;24.52;58.56;98696.78;4955419;28;20055;-81
2023/09/18 09:23:51;;;;;;;4.95;2.55;;;;;;;24.51;58.65;98694.34;4955378;29;20071;-80
2023/09/18 09:26:21;;;;;;;8.32;2.97;;;;;;;24.48;58.41;98668.66;4955395;29;20511;-80
2023/09/18 09:28:49;;;;;;;6.88;2.40;;;;;;;24.46;58.23;98689.56;4955378;29;20135;-79
2023/09/18 09:31:27;;;;;;;5.32;2.17;;;;;;;24.41;58.67;98683.97;4954341;29;20139;-80
2023/09/18 09:33:56;;;;;;;5.43;2.58;;;;;;;24.43;58.22;98685.41;4954924;29;20066;-80
2023/09/18 09:36:24;;;;;;;5.78;2.80;;;;;;;24.43;58.46;98695.34;4954072;29;20055;-80
2023/09/18 09:38:58;;;;;;;4.55;2.22;;;;;;;24.38;58.44;98677.13;4955065;29;20480;-80
2023/09/18 09:41:27;;;;;;;6.05;2.22;;;;;;;24.43;58.34;98687.25;4955087;29;20097;-79
2023/09/18 09:43:57;;;;;;;3.70;2.20;;;;;;;24.45;58.37;98695.97;4953692;29;20162;-82
2023/09/18 09:46:25;;;;;;;4.13;2.30;;;;;;;24.49;58.22;98680.25;4955225;29;20106;-83
2023/09/18 09:49:06;;;;;;;9.40;2.33;;;;;;;24.47;58.30;98693.91;4955178;28;20059;-81
2023/09/18 09:51:34;;;;;;;5.40;2.35;;;;;;;24.54;58.42;98683.97;4954038;29;20047;-80
2023/09/18 09:56:48;;;;;;;3.67;2.08;;;;;;;24.58;58.13;98679.84;4983210;23;20212;-81
2023/09/18 09:59:15;;;;;;;5.10;2.30;;;;;;;24.63;57.80;98699.94;4954718;28;20067;-81
2023/09/18 10:01:44;;;;;;;4.57;2.28;;;;;;;24.65;57.86;98700.53;4954254;28;20065;-80
2023/09/18 10:04:19;;;;;;;6.43;2.30;;;;;;;24.68;58.52;98700.97;4954410;28;20066;-79
2023/09/18 10:06:58;;;;;;;3.63;2.03;;;;;;;24.74;57.70;98696.59;4953458;29;20043;-79
2023/09/18 10:09:28;;;;;;;5.20;2.30;;;;;;;24.85;58.16;98706.78;4954523;28;20055;-77
2023/09/18 10:11:56;;;;;;;5.45;2.13;;;;;;;24.92;57.40;98712.16;4954520;28;20063;-77
2023/09/18 10:14:31;;;;;;;5.43;2.10;;;;;;;24.95;56.99;98714.47;4954377;28;20047;-77
2023/09/18 10:17:19;;;;;;;5.95;1.70;;;;;;;25.01;57.52;98715.50;4954488;28;20381;-77
2023/09/18 10:20:20;;;;;;;3.33;1.90;;;;;;;25.05;57.76;98722.13;4954232;28;20047;-77
2023/09/18 10:22:53;;;;;;;3.53;1.85;;;;;;;25.16;56.66;98725.22;4954110;28;20051;-78
2023/09/18 10:25:23;;;;;;;3.75;2.10;;;;;;;25.21;56.44;98722.72;4954100;28;20416;-78
2023/09/18 10:27:58;;;;;;;4.60;1.98;;;;;;;25.23;56.41;98721.47;4954230;28;20483;-78
2023/09/18 10:30:26;;;;;;;4.00;1.63;;;;;;;25.26;56.47;98712.13;4954486;28;20051;-78
2023/09/18 10:32:53;;;;;;;2.80;2.00;;;;;;;25.28;56.42;98720.84;4953736;28;20504;-78
2023/09/18 10:35:20;;;;;;;2.05;1.73;;;;;;;25.30;55.67;98723.34;4954220;28;20055;-77
2023/09/18 10:37:51;;;;;;;3.65;2.13;;;;;;;25.32;55.31;98729.31;4953920;28;20047;-78
2023/09/18 10:40:18;;;;;;;2.78;2.00;;;;;;;25.34;55.07;98721.88;4953890;28;20488;-78
2023/09/18 10:42:47;;;;;;;2.85;2.03;;;;;;;25.32;55.06;98719.38;4953615;28;20047;-77
2023/09/18 10:45:15;;;;;;;5.80;2.30;;;;;;;25.33;55.28;98718.34;4953987;28;20114;-78
2023/09/18 10:47:47;;;;;;;5.90;2.35;;;;;;;25.31;55.16;98714.22;4953875;28;20469;-77
2023/09/18 10:50:24;;;;;;;5.10;2.30;;;;;;;25.28;55.01;98722.69;4953902;28;20161;-77
2023/09/18 10:52:51;;;;;;;4.43;2.50;;;;;;;25.30;55.33;98723.34;4952298;29;20066;-77
2023/09/18 10:55:18;;;;;;;3.97;2.60;;;;;;;25.28;54.79;98726.22;4953805;29;20058;-77
2023/09/18 10:57:56;;;;;;;4.68;2.72;;;;;;;25.23;54.79;98717.97;4953551;28;20109;-78
2023/09/18 11:00:28;;;;;;;11.98;2.60;;;;;;;25.25;54.66;98721.25;4953637;29;20054;-77
2023/09/18 11:03:11;;;;;;;3.97;2.33;;;;;;;25.21;55.11;98733.47;4953085;28;20058;-79
2023/09/18 11:05:38;;;;;;;4.15;2.45;;;;;;;25.26;55.21;98720.22;4952301;29;20620;-77
2023/09/18 11:08:33;;;;;;;3.33;2.70;;;;;;;25.22;55.36;98724.34;4953589;28;20059;-78
2023/09/18 11:11:12;;;;;;;3.00;2.30;;;;;;;25.30;54.91;98726.03;4953545;28;20043;-78
2023/09/18 11:13:42;;;;;;;3.97;2.22;;;;;;;25.33;55.16;98726.44;4952325;28;20083;-79
2023/09/18 11:16:26;;;;;;;6.40;2.58;;;;;;;25.36;54.83;98727.88;4953329;29;20093;-77
2023/09/18 11:19:00;;;;;;;4.90;2.30;;;;;;;25.49;55.64;98733.22;4953312;28;20570;-78
2023/09/18 11:21:30;;;;;;;;;;;;;;;25.57;55.88;98720.59;4953722;28;20057;-78
2023/09/18 11:24:17;;;;;;;7.57;2.20;;;;;;;25.74;55.09;98743.34;4953013;28;19922;-78
2023/09/18 11:26:47;;;;;;;5.82;1.92;;;;;;;25.92;55.03;98736.44;4953364;28;20074;-78
2023/09/18 11:29:22;;;;;;;3.92;1.98;;;;;;;26.01;54.20;98737.84;4952021;29;20051;-77
2023/09/18 11:31:51;;;;;;;4.18;1.85;;;;;;;26.24;55.82;98733.00;4953010;29;20047;-78
2023/09/18 11:34:26;;;;;;;3.13;1.85;;;;;;;26.53;55.86;98730.75;4952896;28;20496;-77
2023/09/18 11:36:53;;;;;;;4.00;1.70;;;;;;;27.01;56.45;98729.41;4952964;28;20066;-78
2023/09/18 11:39:37;;;;;;;5.93;2.33;;;;;;;27.55;54.13;98725.34;4953165;28;20176;-78
2023/09/18 11:42:22;;;;;;;4.43;1.83;;;;;;;28.01;52.55;98728.56;4952932;28;20090;-78
2023/09/18 11:44:49;;;;;;;3.38;1.55;;;;;;;28.35;52.25;98728.16;4952856;28;20136;-78